createdAt,value
2018-04-07T00:01:36.055Z,11.60
2018-04-07T00:04:03.665Z,11.60
2018-04-07T00:06:32.024Z,11.50
2018-04-07T00:08:59.608Z,11.50
2018-04-07T00:11:27.984Z,11.50
2018-04-07T00:13:56.339Z,11.50
2018-04-07T00:16:23.955Z,11.50
2018-04-07T00:18:51.535Z,11.50
2018-04-07T00:21:19.148Z,11.50
2018-04-07T00:23:47.503Z,11.50
2018-04-07T00:26:15.119Z,11.40
2018-04-07T00:28:42.712Z,11.50
2018-04-07T00:31:10.335Z,11.40
2018-04-07T00:33:37.928Z,11.30
2018-04-07T00:36:05.544Z,11.30
2018-04-07T00:38:33.133Z,11.30
2018-04-07T00:41:00.752Z,11.40
2018-04-07T00:43:29.108Z,11.30
2018-04-07T00:45:56.719Z,11.30
2018-04-07T00:48:24.312Z,11.40
2018-04-07T00:50:51.925Z,11.40
2018-04-07T00:53:19.512Z,11.40
2018-04-07T00:55:47.127Z,11.40
2018-04-07T00:58:15.487Z,11.40
2018-04-07T01:00:43.097Z,11.30
2018-04-07T01:03:10.691Z,11.40
2018-04-07T01:05:38.313Z,11.50
2018-04-07T01:08:05.904Z,11.50
2018-04-07T01:10:33.492Z,11.40
2018-04-07T01:13:01.103Z,11.50
2018-04-07T01:15:28.700Z,11.50
2018-04-07T01:17:56.312Z,11.50
2018-04-07T01:20:23.898Z,11.50
2018-04-07T01:22:51.508Z,11.50
2018-04-07T01:25:19.864Z,11.50
2018-04-07T01:27:47.484Z,11.40
2018-04-07T01:30:15.079Z,11.40
2018-04-07T01:32:42.688Z,11.40
2018-04-07T01:35:10.272Z,11.40
2018-04-07T01:37:37.879Z,11.40
2018-04-07T01:40:05.464Z,11.30
2018-04-07T01:42:33.850Z,11.20
2018-04-07T01:45:01.439Z,11.20
2018-04-07T01:47:29.052Z,11.30
2018-04-07T01:49:57.407Z,11.30
2018-04-07T01:52:25.026Z,11.20
2018-04-07T01:54:52.611Z,11.30
2018-04-07T01:57:20.231Z,11.30
2018-04-07T01:59:47.822Z,11.30
2018-04-07T02:02:15.445Z,11.30
2018-04-07T02:04:43.796Z,11.30
2018-04-07T02:07:11.412Z,11.20
2018-04-07T02:09:38.995Z,11.30
2018-04-07T02:12:06.607Z,11.30
2018-04-07T02:14:34.961Z,11.10
2018-04-07T02:17:02.584Z,11.10
2018-04-07T02:19:30.168Z,11.10
2018-04-07T02:21:57.779Z,11.10
2018-04-07T02:24:25.362Z,11.10
2018-04-07T02:26:52.972Z,11.00
2018-04-07T02:29:21.328Z,11.00
2018-04-07T02:31:49.733Z,11.00
2018-04-07T02:34:18.084Z,10.90
2018-04-07T02:36:45.709Z,10.90
2018-04-07T02:39:13.301Z,10.90
2018-04-07T02:41:41.688Z,10.90
2018-04-07T02:44:09.276Z,10.80
2018-04-07T02:46:37.628Z,10.90
2018-04-07T02:49:05.241Z,10.80
2018-04-07T02:51:32.829Z,10.90
2018-04-07T02:54:00.441Z,10.90
2018-04-07T02:56:28.795Z,10.80
2018-04-07T02:58:56.404Z,10.80
2018-04-07T03:01:23.989Z,10.80
2018-04-07T03:03:51.602Z,10.80
2018-04-07T03:06:19.963Z,10.80
2018-04-07T03:08:48.344Z,10.70
2018-04-07T03:11:16.704Z,10.70
2018-04-07T03:13:44.319Z,10.70
2018-04-07T03:16:11.899Z,10.60
2018-04-07T03:18:39.515Z,10.60
2018-04-07T03:21:07.872Z,10.60
2018-04-07T03:23:35.483Z,10.50
2018-04-07T03:26:03.068Z,10.60
2018-04-07T03:28:30.685Z,10.60
2018-04-07T03:30:58.276Z,10.60
2018-04-07T03:33:25.942Z,10.60
2018-04-07T03:35:53.532Z,10.60
2018-04-07T03:38:21.154Z,10.60
2018-04-07T03:40:48.738Z,10.60
2018-04-07T03:43:16.347Z,10.60
2018-04-07T03:45:44.704Z,10.60
2018-04-07T03:48:12.310Z,10.50
2018-04-07T03:50:39.896Z,10.60
2018-04-07T03:53:07.512Z,10.60
2018-04-07T03:55:35.108Z,10.60
2018-04-07T03:58:02.696Z,10.60
2018-04-07T04:00:30.321Z,10.60
2018-04-07T04:02:57.909Z,10.50
2018-04-07T04:05:25.519Z,10.50
2018-04-07T04:07:53.104Z,10.50
2018-04-07T04:10:20.712Z,10.50
2018-04-07T04:12:49.069Z,10.50
2018-04-07T04:15:16.692Z,10.50
2018-04-07T04:17:44.276Z,10.50
2018-04-07T04:20:11.900Z,10.50
2018-04-07T04:22:39.499Z,10.50
2018-04-07T04:25:07.121Z,10.50
2018-04-07T04:27:34.714Z,10.50
2018-04-07T04:30:02.320Z,10.50
2018-04-07T04:32:30.667Z,10.50
2018-04-07T04:34:58.312Z,10.40
2018-04-07T04:37:25.896Z,10.40
2018-04-07T04:39:53.520Z,10.40
2018-04-07T04:42:21.111Z,10.40
2018-04-07T04:44:48.730Z,10.40
2018-04-07T04:47:16.310Z,10.40
2018-04-07T04:49:43.920Z,10.40
2018-04-07T04:52:12.274Z,10.30
2018-04-07T04:54:39.881Z,10.20
2018-04-07T04:57:07.464Z,10.30
2018-04-07T04:59:35.091Z,10.20
2018-04-07T05:02:03.445Z,10.20
2018-04-07T05:04:31.059Z,10.10
2018-04-07T05:06:58.652Z,10.20
2018-04-07T05:09:26.276Z,10.20
2018-04-07T05:11:53.863Z,10.20
2018-04-07T05:14:21.472Z,10.20
2018-04-07T05:16:49.820Z,10.20
2018-04-07T05:19:17.435Z,10.20
2018-04-07T05:21:45.028Z,10.20
2018-04-07T05:24:12.670Z,10.20
2018-04-07T05:26:40.264Z,10.20
2018-04-07T05:29:08.652Z,10.30
2018-04-07T05:31:36.244Z,10.20
2018-04-07T05:34:03.937Z,10.30
2018-04-07T05:36:31.527Z,10.30
2018-04-07T05:38:59.140Z,10.30
2018-04-07T05:41:26.728Z,10.30
2018-04-07T05:43:54.340Z,10.30
2018-04-07T05:46:22.691Z,10.30
2018-04-07T05:48:50.300Z,10.30
2018-04-07T05:51:17.931Z,10.40
2018-04-07T05:53:46.312Z,10.40
2018-04-07T05:56:14.665Z,10.40
2018-04-07T05:58:42.285Z,10.30
2018-04-07T06:01:09.872Z,10.40
2018-04-07T06:03:37.492Z,10.40
2018-04-07T06:06:05.112Z,10.40
2018-04-07T06:08:32.707Z,10.50
2018-04-07T06:11:00.324Z,10.50
2018-04-07T06:13:27.921Z,10.50
2018-04-07T06:15:55.549Z,10.50
2018-04-07T06:18:23.139Z,10.50
2018-04-07T06:20:51.529Z,10.60
2018-04-07T06:23:19.128Z,10.60
2018-04-07T06:25:46.744Z,10.70
2018-04-07T06:28:14.328Z,10.70
2018-04-07T06:30:41.943Z,10.80
2018-04-07T06:33:09.530Z,10.80
2018-04-07T06:35:37.263Z,10.80
2018-04-07T06:38:04.856Z,10.90
2018-04-07T06:40:32.464Z,10.90
2018-04-07T06:43:00.082Z,11.00
2018-04-07T06:45:27.684Z,11.00
2018-04-07T06:47:55.300Z,11.10
2018-04-07T06:50:22.886Z,11.10
2018-04-07T06:52:50.508Z,11.20
2018-04-07T06:55:18.877Z,11.30
2018-04-07T06:57:47.232Z,11.40
2018-04-07T07:00:14.846Z,11.30
2018-04-07T07:02:42.441Z,11.40
2018-04-07T07:05:10.067Z,11.50
2018-04-07T07:07:37.657Z,11.50
2018-04-07T07:10:05.267Z,11.60
2018-04-07T07:12:33.628Z,11.70
2018-04-07T07:15:01.249Z,11.70
2018-04-07T07:17:28.839Z,11.80
2018-04-07T07:19:56.460Z,11.90
2018-04-07T07:22:24.057Z,12.00
2018-04-07T07:24:51.678Z,12.10
2018-04-07T07:27:19.276Z,12.10
2018-04-07T07:29:46.892Z,12.30
2018-04-07T07:32:14.485Z,12.30
2018-04-07T07:34:42.104Z,12.40
2018-04-07T07:37:09.704Z,12.50
2018-04-07T07:39:37.322Z,12.60
2018-04-07T07:42:04.952Z,12.70
2018-04-07T07:44:33.355Z,12.90
2018-04-07T07:47:01.717Z,13.00
2018-04-07T07:49:30.113Z,13.10
2018-04-07T07:51:58.465Z,13.20
2018-04-07T07:54:26.093Z,13.10
2018-04-07T07:56:53.693Z,13.20
2018-04-07T07:59:22.078Z,13.40
2018-04-07T08:01:50.436Z,13.50
2018-04-07T08:04:18.056Z,13.50
2018-04-07T08:06:45.645Z,13.60
2018-04-07T08:09:13.270Z,13.70
2018-04-07T08:11:40.860Z,13.80
2018-04-07T08:14:08.461Z,13.90
2018-04-07T08:16:36.857Z,14.00
2018-04-07T08:19:04.479Z,14.00
2018-04-07T08:21:32.076Z,14.10
2018-04-07T08:23:59.705Z,14.20
2018-04-07T08:26:27.321Z,14.20
2018-04-07T08:28:54.939Z,14.30
2018-04-07T08:31:23.299Z,14.40
2018-04-07T08:33:50.911Z,14.40
2018-04-07T08:36:18.504Z,14.50
2018-04-07T08:38:46.128Z,14.60
2018-04-07T08:41:13.729Z,14.70
2018-04-07T08:43:41.345Z,14.70
2018-04-07T08:46:08.945Z,14.80
2018-04-07T08:48:36.564Z,14.90
2018-04-07T08:51:04.213Z,15.00
2018-04-07T08:53:31.790Z,15.10
2018-04-07T08:55:59.403Z,15.20
2018-04-07T08:58:28.496Z,15.40
2018-04-07T09:00:56.787Z,15.40
2018-04-07T09:03:24.413Z,15.50
2018-04-07T09:05:52.036Z,15.60
2018-04-07T09:08:20.396Z,15.80
2018-04-07T09:10:48.877Z,15.90
2018-04-07T09:13:16.466Z,15.80
2018-04-07T09:15:44.084Z,16.00
2018-04-07T09:18:11.676Z,16.10
2018-04-07T09:20:40.062Z,16.20
2018-04-07T09:23:07.660Z,16.10
2018-04-07T09:25:35.275Z,16.30
2018-04-07T09:28:03.632Z,16.40
2018-04-07T09:30:31.248Z,16.40
2018-04-07T09:32:58.919Z,16.50
2018-04-07T09:35:26.536Z,16.60
2018-04-07T09:37:54.897Z,16.80
2018-04-07T09:40:22.508Z,16.70
2018-04-07T09:42:50.091Z,16.90
2018-04-07T09:45:17.704Z,17.00
2018-04-07T09:47:45.292Z,17.10
2018-04-07T09:50:12.900Z,17.10
2018-04-07T09:52:40.489Z,17.20
2018-04-07T09:55:08.107Z,17.30
2018-04-07T09:57:35.699Z,17.30
2018-04-07T10:00:04.085Z,17.50
2018-04-07T10:02:35.651Z,17.50
2018-04-07T10:05:03.281Z,17.60
2018-04-07T10:07:31.635Z,17.70
2018-04-07T10:09:59.219Z,17.60
2018-04-07T10:12:27.605Z,17.90
2018-04-07T10:14:55.960Z,17.90
2018-04-07T10:17:23.622Z,17.90
2018-04-07T10:19:51.233Z,18.00
2018-04-07T10:22:18.844Z,18.10
2018-04-07T10:24:46.440Z,18.10
2018-04-07T10:27:14.056Z,18.20
2018-04-07T10:29:41.648Z,18.20
2018-04-07T10:32:10.030Z,18.30
2018-04-07T10:34:38.384Z,18.40
2018-04-07T10:37:05.991Z,18.30
2018-04-07T10:39:33.584Z,18.40
2018-04-07T10:42:01.233Z,18.50
2018-04-07T10:44:28.851Z,18.50
2018-04-07T10:46:57.211Z,18.60
2018-04-07T10:49:25.616Z,18.60
2018-04-07T10:51:53.213Z,18.60
2018-04-07T10:54:20.877Z,18.70
2018-04-07T10:56:48.478Z,18.80
2018-04-07T10:59:16.840Z,18.90
2018-04-07T11:01:44.455Z,18.90
2018-04-07T11:04:12.050Z,19.00
2018-04-07T11:06:39.796Z,19.10
2018-04-07T11:09:07.392Z,19.10
2018-04-07T11:11:35.021Z,19.20
2018-04-07T11:14:02.682Z,19.20
2018-04-07T11:16:30.305Z,19.30
2018-04-07T11:18:58.670Z,19.40
2018-04-07T11:21:27.061Z,19.40
2018-04-07T11:23:55.424Z,19.50
2018-04-07T11:26:23.788Z,19.60
2018-04-07T11:28:51.408Z,19.50
2018-04-07T11:31:19.008Z,19.60
2018-04-07T11:33:46.644Z,19.70
2018-04-07T11:36:14.228Z,19.80
2018-04-07T11:38:41.821Z,19.80
2018-04-07T11:41:10.205Z,20.00
2018-04-07T11:43:37.794Z,19.90
2018-04-07T11:46:05.405Z,20.00
2018-04-07T11:48:33.843Z,20.20
2018-04-07T11:51:01.436Z,20.10
2018-04-07T11:53:29.047Z,20.20
2018-04-07T11:55:56.634Z,20.20
2018-04-07T11:58:24.244Z,20.30
2018-04-07T12:00:52.591Z,20.30
2018-04-07T12:03:20.985Z,20.40
2018-04-07T12:05:49.342Z,20.50
2018-04-07T12:08:16.970Z,20.40
2018-04-07T12:10:44.563Z,20.50
2018-04-07T12:13:12.916Z,20.60
2018-04-07T12:15:40.541Z,20.50
2018-04-07T12:18:08.139Z,20.60
2018-04-07T12:20:35.728Z,20.60
2018-04-07T12:23:03.355Z,20.70
2018-04-07T12:25:30.944Z,20.70
2018-04-07T12:27:58.576Z,20.70
2018-04-07T12:30:26.747Z,20.80
2018-04-07T12:32:54.360Z,20.80
2018-04-07T12:35:21.951Z,20.90
2018-04-07T12:37:49.564Z,20.90
2018-04-07T12:40:17.920Z,21.10
2018-04-07T12:42:45.527Z,21.00
2018-04-07T12:45:13.884Z,21.20
2018-04-07T12:47:41.516Z,21.10
2018-04-07T12:50:09.099Z,21.20
2018-04-07T12:52:36.719Z,21.20
2018-04-07T12:55:04.304Z,21.30
2018-04-07T12:57:31.930Z,21.30
2018-04-07T12:59:59.518Z,21.30
2018-04-07T13:02:27.128Z,21.40
2018-04-07T13:04:55.492Z,21.50
2018-04-07T13:07:23.130Z,21.40
2018-04-07T13:09:50.720Z,21.50
2018-04-07T13:12:18.332Z,21.60
2018-04-07T13:14:45.916Z,21.60
2018-04-07T13:17:13.528Z,21.60
2018-04-07T13:19:41.127Z,21.60
2018-04-07T13:22:08.735Z,21.70
2018-04-07T13:24:37.080Z,21.80
2018-04-07T13:27:04.697Z,21.70
2018-04-07T13:29:32.282Z,21.80
2018-04-07T13:31:59.908Z,21.80
2018-04-07T13:34:27.503Z,21.80
2018-04-07T13:36:55.115Z,21.80
2018-04-07T13:39:23.463Z,21.90
2018-04-07T13:41:51.092Z,21.80
2018-04-07T13:44:18.687Z,21.80
2018-04-07T13:46:46.280Z,21.80
2018-04-07T13:49:14.660Z,21.70
2018-04-07T13:51:43.014Z,21.70
2018-04-07T13:54:10.632Z,21.60
2018-04-07T13:56:38.223Z,21.60
2018-04-07T13:59:05.836Z,21.60
2018-04-07T14:01:33.425Z,21.60
2018-04-07T14:04:01.082Z,21.60
2018-04-07T14:06:28.864Z,21.70
2018-04-07T14:08:57.123Z,21.60
2018-04-07T14:11:24.888Z,21.60
2018-04-07T14:13:52.952Z,21.60
2018-04-07T14:16:20.577Z,21.60
2018-04-07T14:18:48.933Z,21.60
2018-04-07T14:21:16.565Z,21.60
2018-04-07T14:23:44.212Z,21.60
2018-04-07T14:26:11.837Z,21.60
2018-04-07T14:28:40.191Z,21.50
2018-04-07T14:31:07.813Z,21.50
2018-04-07T14:33:35.413Z,21.40
2018-04-07T14:36:03.035Z,21.40
2018-04-07T14:38:30.630Z,21.40
2018-04-07T14:40:58.219Z,21.30
2018-04-07T14:43:26.615Z,21.30
2018-04-07T14:45:54.204Z,21.20
2018-04-07T14:48:21.802Z,21.30
2018-04-07T14:50:49.437Z,21.30
2018-04-07T14:53:17.090Z,21.30
2018-04-07T14:55:44.874Z,21.20
2018-04-07T14:58:12.468Z,21.20
2018-04-07T15:00:40.860Z,21.10
2018-04-07T15:03:08.445Z,21.00
2018-04-07T15:05:36.048Z,21.00
2018-04-07T15:08:05.164Z,21.00
2018-04-07T15:10:32.771Z,21.00
2018-04-07T15:13:00.395Z,21.10
2018-04-07T15:15:27.993Z,21.10
2018-04-07T15:17:55.611Z,21.10
2018-04-07T15:20:23.965Z,21.10
2018-04-07T15:22:52.353Z,21.10
2018-04-07T15:25:19.947Z,21.00
2018-04-07T15:27:47.575Z,21.10
2018-04-07T15:30:15.934Z,21.10
2018-04-07T15:32:43.529Z,21.00
2018-04-07T15:35:11.911Z,21.00
2018-04-07T15:37:39.503Z,21.00
2018-04-07T15:40:07.130Z,21.00
2018-04-07T15:42:35.484Z,21.00
2018-04-07T15:45:03.133Z,21.00
2018-04-07T15:47:30.766Z,21.00
2018-04-07T15:49:58.351Z,21.00
2018-04-07T15:52:25.935Z,21.00
2018-04-07T15:54:54.320Z,21.00
2018-04-07T15:57:22.673Z,21.00
2018-04-07T15:59:50.264Z,20.90
2018-04-07T16:02:18.647Z,21.00
2018-04-07T16:04:47.003Z,20.90
2018-04-07T16:07:14.629Z,20.90
2018-04-07T16:09:42.220Z,20.90
2018-04-07T16:12:10.036Z,20.80
2018-04-07T16:14:37.639Z,20.80
2018-04-07T16:17:05.263Z,20.80
2018-04-07T16:19:32.912Z,20.80
2018-04-07T16:22:00.532Z,20.80
2018-04-07T16:24:28.159Z,20.70
2018-04-07T16:26:55.776Z,20.70
2018-04-07T16:29:24.150Z,20.70
2018-04-07T16:31:52.568Z,20.70
2018-04-07T16:34:20.175Z,20.70
2018-04-07T16:36:47.801Z,20.70
2018-04-07T16:39:15.460Z,20.70
2018-04-07T16:41:43.097Z,20.70
2018-04-07T16:44:10.859Z,20.70
2018-04-07T16:46:38.521Z,20.70
2018-04-07T16:49:06.121Z,20.70
2018-04-07T16:51:33.703Z,20.60
2018-04-07T16:54:01.328Z,20.60
2018-04-07T16:56:28.939Z,20.60
2018-04-07T16:58:57.292Z,20.50
2018-04-07T17:01:24.916Z,20.50
2018-04-07T17:03:52.516Z,20.50
2018-04-07T17:06:20.135Z,20.50
2018-04-07T17:08:47.718Z,20.50
2018-04-07T17:11:15.333Z,20.40
2018-04-07T17:13:42.926Z,20.40
2018-04-07T17:16:10.545Z,20.40
2018-04-07T17:18:38.899Z,20.30
2018-04-07T17:21:06.521Z,20.20
2018-04-07T17:23:34.115Z,20.20
2018-04-07T17:26:01.751Z,20.20
2018-04-07T17:28:29.348Z,20.10
2018-04-07T17:30:56.976Z,20.10
2018-04-07T17:33:24.599Z,20.10
2018-04-07T17:35:52.956Z,20.00
2018-04-07T17:38:20.730Z,19.90
2018-04-07T17:40:49.093Z,19.90
2018-04-07T17:43:16.760Z,19.80
2018-04-07T17:45:44.349Z,19.90
2018-04-07T17:48:11.951Z,19.90
2018-04-07T17:50:39.572Z,19.80
2018-04-07T17:53:07.166Z,19.80
2018-04-07T17:55:34.756Z,19.70
2018-04-07T17:58:02.394Z,19.70
2018-04-07T18:00:29.993Z,19.60
2018-04-07T18:02:58.372Z,19.50
2018-04-07T18:05:26.724Z,19.50
2018-04-07T18:07:54.339Z,19.40
2018-04-07T18:10:21.940Z,19.40
2018-04-07T18:12:49.569Z,19.40
2018-04-07T18:15:17.169Z,19.30
2018-04-07T18:17:44.794Z,19.30
2018-04-07T18:20:12.394Z,19.20
2018-04-07T18:22:39.988Z,19.20
2018-04-07T18:25:08.438Z,19.00
2018-04-07T18:27:36.000Z,19.00
2018-04-07T18:30:03.623Z,19.00
2018-04-07T18:32:31.212Z,18.90
2018-04-07T18:34:58.836Z,18.90
2018-04-07T18:37:26.424Z,18.80
2018-04-07T18:39:54.029Z,18.80
2018-04-07T18:42:22.409Z,18.70
2018-04-07T18:44:50.760Z,18.70
2018-04-07T18:47:18.375Z,18.60
2018-04-07T18:49:45.962Z,18.60
2018-04-07T18:52:13.885Z,18.60
2018-04-07T18:54:41.508Z,18.50
2018-04-07T18:57:09.129Z,18.50
2018-04-07T18:59:37.005Z,18.40
2018-04-07T19:02:04.627Z,18.40
2018-04-07T19:04:32.222Z,18.30
2018-04-07T19:06:59.841Z,18.30
2018-04-07T19:09:28.317Z,18.20
2018-04-07T19:11:56.854Z,18.10
2018-04-07T19:14:24.907Z,18.10
2018-04-07T19:16:52.889Z,18.10
2018-04-07T19:19:20.847Z,18.00
2018-04-07T19:21:48.457Z,18.00
2018-04-07T19:24:16.080Z,17.90
2018-04-07T19:26:43.846Z,17.90
2018-04-07T19:29:11.982Z,17.80
2018-04-07T19:31:39.885Z,17.80
2018-04-07T19:34:08.309Z,17.70
2018-04-07T19:36:37.257Z,17.60
2018-04-07T19:39:04.892Z,17.50
2018-04-07T19:41:32.732Z,17.50
2018-04-07T19:44:01.100Z,17.50
2018-04-07T19:46:28.749Z,17.40
2018-04-07T19:48:56.346Z,17.40
2018-04-07T19:51:24.705Z,17.30
2018-04-07T19:53:52.337Z,17.30
2018-04-07T19:56:20.465Z,17.30
2018-04-07T19:58:48.263Z,17.30
2018-04-07T20:01:15.937Z,17.30
2018-04-07T20:03:43.561Z,17.20
2018-04-07T20:06:11.193Z,17.20
2018-04-07T20:08:39.040Z,17.20
2018-04-07T20:11:07.699Z,17.10
2018-04-07T20:13:36.211Z,17.10
2018-04-07T20:16:04.053Z,17.00
2018-04-07T20:18:31.643Z,17.10
2018-04-07T20:20:59.316Z,17.00
2018-04-07T20:23:27.708Z,17.00
2018-04-07T20:25:56.095Z,17.10
2018-04-07T20:28:24.201Z,17.00
2018-04-07T20:30:52.791Z,17.00
2018-04-07T20:33:20.858Z,16.90
2018-04-07T20:35:48.456Z,16.90
2018-04-07T20:38:16.234Z,16.80
2018-04-07T20:40:49.992Z,16.80
2018-04-07T20:43:18.533Z,16.70
2018-04-07T20:45:46.127Z,16.70
2018-04-07T20:48:13.724Z,16.70
2018-04-07T20:50:41.357Z,16.70
2018-04-07T20:53:09.217Z,16.70
2018-04-07T20:55:37.102Z,16.60
2018-04-07T20:58:04.745Z,16.60
2018-04-07T21:00:32.339Z,16.60
2018-04-07T21:02:59.962Z,16.60
2018-04-07T21:05:27.553Z,16.50
2018-04-07T21:07:55.176Z,16.50
2018-04-07T21:10:22.764Z,16.50
2018-04-07T21:12:50.379Z,16.40
2018-04-07T21:15:17.972Z,16.40
2018-04-07T21:17:45.595Z,16.40
2018-04-07T21:20:13.951Z,16.30
2018-04-07T21:22:41.538Z,16.20
2018-04-07T21:25:09.166Z,16.30
2018-04-07T21:27:37.556Z,16.20
2018-04-07T21:30:05.946Z,16.20
2018-04-07T21:32:34.309Z,16.20
2018-04-07T21:35:01.933Z,16.10
2018-04-07T21:37:29.532Z,16.10
2018-04-07T21:39:57.140Z,16.10
2018-04-07T21:42:24.737Z,16.10
2018-04-07T21:44:52.362Z,16.10
2018-04-07T21:47:19.951Z,16.10
2018-04-07T21:49:47.536Z,16.10
2018-04-07T21:52:15.170Z,16.00
2018-04-07T21:54:42.761Z,16.00
2018-04-07T21:57:11.127Z,16.00
2018-04-07T21:59:38.760Z,15.90
2018-04-07T22:02:06.390Z,15.90
2018-04-07T22:04:33.984Z,15.90
2018-04-07T22:07:01.604Z,15.90
2018-04-07T22:09:29.226Z,15.90
2018-04-07T22:11:56.827Z,15.90
2018-04-07T22:14:24.448Z,15.90
2018-04-07T22:16:52.034Z,15.90
2018-04-07T22:19:20.426Z,15.90
2018-04-07T22:21:48.028Z,15.80
2018-04-07T22:24:15.655Z,15.80
2018-04-07T22:26:44.128Z,15.80
2018-04-07T22:29:12.511Z,15.80
2018-04-07T22:31:40.100Z,15.70
2018-04-07T22:34:07.730Z,15.80
2018-04-07T22:36:35.347Z,15.80
2018-04-07T22:39:02.936Z,15.80
2018-04-07T22:41:31.326Z,15.70
2018-04-07T22:43:58.921Z,15.70
2018-04-07T22:46:26.523Z,15.70
2018-04-07T22:48:54.144Z,15.70
2018-04-07T22:51:21.727Z,15.70
2018-04-07T22:53:49.344Z,15.70
2018-04-07T22:56:16.927Z,15.70
2018-04-07T22:58:44.525Z,15.60
2018-04-07T23:01:12.141Z,15.60
2018-04-07T23:03:39.746Z,15.60
2018-04-07T23:06:07.371Z,15.60
2018-04-07T23:08:34.967Z,15.60
2018-04-07T23:11:02.560Z,15.60
2018-04-07T23:13:30.458Z,15.60
2018-04-07T23:15:58.048Z,15.60
2018-04-07T23:18:25.674Z,15.50
2018-04-07T23:20:53.268Z,15.50
2018-04-07T23:23:20.851Z,15.50
2018-04-07T23:25:49.249Z,15.50
2018-04-07T23:28:16.841Z,15.40
2018-04-07T23:30:44.436Z,15.50
2018-04-07T23:33:12.053Z,15.40
2018-04-07T23:35:39.635Z,15.40
2018-04-07T23:38:07.255Z,15.40
2018-04-07T23:40:34.848Z,15.40
2018-04-07T23:43:02.468Z,15.40
2018-04-07T23:45:30.104Z,15.40
2018-04-07T23:47:58.455Z,15.40
2018-04-07T23:50:26.052Z,15.30
2018-04-07T23:52:54.480Z,15.30
2018-04-07T23:55:22.067Z,15.30
2018-04-07T23:57:49.655Z,15.30
